Leadville, CO

11:43 AM MDT on August 22, 2014 (GMT -0600)
Lake County | Change Station
CLOSE
Current Station
Airport
Location: Leadville,
Elevation: 9928 ft
Nearby Weather Stations

Elev 9928 ft 39.23 °N, 106.32 °W | Updated 50 minutes ago

Overcast
Overcast
55 °F
Feels Like 55 °F
N
9
Wind Variable Wind from SSE

Today
High -- | Low -- °F
--% Chance of Precip.
Yesterday
High -- | Low -- °F
Precip. -- in
6:24 AM 7:50 PM
Waning Crescent, 7% visible
Pressure 29.93 in
Visibility 10.0 miles
Clouds Scattered Clouds 4900 ft
Overcast 11000 ft
Dew Point 39 °F
Humidity 55%
Rainfall 0.00 in
Snow Depth 178 in , 0 in
UV 3 out of 12
Pollen 9.60 out of 12
Air Quality Not available.
Flu Activity Not available.
METAR KLXV 221653Z AUTO 16008KT 10SM SCT049 OVC110 13/04 A3040 RMK AO2 SLP134 T01280039

More Conditions Fewer Conditions

Pressure 29.93 in
Visibility 10.0 miles
Clouds Scattered Clouds 4900 ft
Overcast 11000 ft
Dew Point 39 °F
Humidity 55%
Rainfall 0.00 in
Snow Depth 178 in , 0 in
UV 3 out of 12
Pollen 9.60 out of 12
Air Quality Not available.
Flu Activity Not available.
METAR KLXV 221653Z AUTO 16008KT 10SM SCT049 OVC110 13/04 A3040 RMK AO2 SLP134 T01280039

More Conditions Fewer Conditions

10-Day Weather Forecast

Almanac

Astronomy

Aug. 22, 2014 Rise Set
Actual Time 6:24 AM MDT 7:50 PM MDT
Civil Twilight 5:56 AM MDT 8:18 PM MDT
Nautical Twilight 5:22 AM MDT 8:52 PM MDT
Astronomical Twilight 4:46 AM MDT 9:27 PM MDT
Moon 3:49 AM MDT 6:00 PM MDT
Length of Visible Light 14h 22m
Length of Day
13h 26m
Tomorrow will be 2m 22s shorter.
Waning Crescent, 7% of the Moon is Illuminated
Today
Waning Crescent
Aug 25
New
Sep 2
First Quarter
Sep 8
Full
Sep 15
Last Quarter

Today's Extremes

State Highs State Lows

Community

WunderPhotos

Upload Photos

1,746,206 photos uploaded!

WunderBlogs® & News

Nearby

Snow Depth

Station Depth Elevation
Fremont Pass 178 in 11400 ft
Ivanhoe 0 in 10400 ft
Kiln 0 in 9600 ft
Rough And Tumble 1 in 10360 ft
Brumley 0 in 10600 ft

Earthquake Activity

City Distance Mag. Time & Date
No recent earthquake activity has been reported nearby.
Minimum magnitude displayed is 2.5.

Coastal Water Temperatures

Place Temperature
No Stations Reporting

Nearby Weather Stations